Time;durP1;ratioP1;P1;durP2;ratioP2;P2;SDS_P1;SDS_P2;PMS_P1;PMS_P2;Temp;Humidity;BMP_temperature;BMP_pressure;BME280_temperature;BME280_humidity;BME280_pressure;Samples;Min_cycle;Max_cycle;Signal;HPM_P1;HPM_P2
2022/08/14 19:14:49;;;;;;;7.72;6.43;;;23.50;85.70;;;;;;4994251;22;20060;-70
2022/08/14 19:17:41;;;;;;;9.88;5.20;;;23.40;91.10;;;;;;5019893;28;20483;-73
2022/08/14 19:20:08;;;;;;;7.55;4.55;;;23.30;92.50;;;;;;5027851;28;20105;-69
2022/08/14 19:22:36;;;;;;;9.02;6.25;;;23.20;93.60;;;;;;5037159;28;20080;-71
2022/08/14 19:25:02;;;;;;;8.95;7.90;;;23.20;94.20;;;;;;4996607;28;20038;-70
2022/08/14 19:27:28;;;;;;;10.13;6.88;;;23.00;96.70;;;;;;5030092;28;20041;-70
2022/08/14 19:30:12;;;;;;;7.63;6.45;;;22.90;97.30;;;;;;5027031;28;20033;-70
2022/08/14 19:32:39;;;;;;;5.78;4.68;;;22.80;97.90;;;;;;5026498;28;20129;-70
2022/08/14 19:35:23;;;;;;;8.90;6.80;;;22.80;98.20;;;;;;5020204;28;20058;-70
2022/08/14 19:37:53;;;;;;;9.88;7.28;;;22.80;99.60;;;;;;5026885;28;20030;-71
2022/08/14 19:40:31;;;;;;;10.60;6.63;;;22.70;99.90;;;;;;5003747;28;20030;-73
2022/08/14 19:42:58;;;;;;;8.15;7.07;;;22.60;99.90;;;;;;5025146;28;20026;-71
2022/08/14 19:45:25;;;;;;;10.80;5.72;;;22.50;99.90;;;;;;5026096;28;20262;-72
2022/08/14 19:47:51;;;;;;;8.82;7.93;;;22.50;99.90;;;;;;5025821;28;20052;-71
2022/08/14 19:50:28;;;;;;;6.38;5.50;;;22.50;99.90;;;;;;5025254;28;20399;-71
2022/08/14 19:53:08;;;;;;;8.85;6.55;;;22.40;99.90;;;;;;5024312;28;20034;-69
2022/08/14 19:55:35;;;;;;;7.18;5.72;;;22.40;99.90;;;;;;5022759;28;20042;-70
2022/08/14 19:58:02;;;;;;;9.45;5.80;;;22.30;99.90;;;;;;5025107;28;20068;-71
2022/08/14 20:00:27;;;;;;;8.95;5.53;;;22.20;99.90;;;;;;5030045;28;20037;-70
2022/08/14 20:03:06;;;;;;;8.10;4.78;;;22.10;99.90;;;;;;5006079;28;20450;-70
2022/08/14 20:05:33;;;;;;;6.85;4.70;;;22.10;99.90;;;;;;5026111;28;20075;-70
2022/08/14 20:08:00;;;;;;;7.97;4.13;;;22.20;99.90;;;;;;5024368;28;20037;-70
2022/08/14 20:10:36;;;;;;;8.25;4.35;;;22.20;99.40;;;;;;5021784;28;20029;-69
2022/08/14 20:13:11;;;;;;;6.32;4.10;;;22.20;98.90;;;;;;5027967;28;20104;-71
2022/08/14 20:15:38;;;;;;;5.88;4.20;;;22.20;99.00;;;;;;5021749;28;20593;-71
2022/08/14 20:18:09;;;;;;;6.45;3.67;;;22.20;98.70;;;;;;5008790;28;20033;-69
2022/08/14 20:20:40;;;;;;;5.95;3.90;;;22.20;98.20;;;;;;5025348;28;20053;-70
2022/08/14 20:23:11;;;;;;;7.47;4.00;;;22.20;98.00;;;;;;5023534;28;20080;-71
2022/08/14 20:25:38;;;;;;;9.00;4.25;;;22.10;98.10;;;;;;5028744;28;20052;-72
2022/08/14 20:28:19;;;;;;;5.88;3.67;;;22.10;98.50;;;;;;5011296;28;20033;-71
2022/08/14 20:30:46;;;;;;;5.20;3.83;;;22.10;98.40;;;;;;5028154;28;20043;-69
2022/08/14 20:33:15;;;;;;;5.88;4.00;;;22.10;98.20;;;;;;5023740;28;20021;-73
2022/08/14 20:35:50;;;;;;;6.85;4.13;;;22.10;98.40;;;;;;5017970;28;20483;-72
2022/08/14 20:38:19;;;;;;;7.50;4.03;;;22.00;98.50;;;;;;5012467;28;20030;-72
2022/08/14 20:41:01;;;;;;;7.05;4.18;;;21.90;99.20;;;;;;5027555;28;20455;-73
2022/08/14 20:46:23;;;;;;;5.75;4.05;;;21.70;99.60;;;;;;5018293;28;20554;-71
2022/08/14 20:48:56;;;;;;;6.70;4.30;;;21.50;99.90;;;;;;5016017;28;20091;-68
2022/08/14 20:51:23;;;;;;;6.82;4.53;;;21.50;99.90;;;;;;5024865;28;20025;-68
2022/08/14 20:53:57;;;;;;;6.85;4.57;;;21.40;99.90;;;;;;5008980;28;20064;-67
2022/08/14 20:56:24;;;;;;;8.43;4.57;;;21.30;99.90;;;;;;5025456;28;20047;-67
2022/08/14 20:58:50;;;;;;;5.47;4.20;;;21.30;99.90;;;;;;5024310;28;20052;-68
2022/08/14 21:01:17;;;;;;;6.20;4.15;;;21.20;99.90;;;;;;5019813;28;20060;-68
2022/08/14 21:03:43;;;;;;;6.60;4.40;;;21.00;99.90;;;;;;5021804;28;20033;-70
2022/08/14 21:06:12;;;;;;;7.40;4.95;;;20.90;99.90;;;;;;5026497;28;20045;-68
2022/08/14 21:08:39;;;;;;;;;;;20.80;99.90;;;;;;5026503;28;20037;-69
2022/08/14 21:11:06;;;;;;;10.02;5.07;;;20.70;99.90;;;;;;5024474;28;19921;-67
2022/08/14 21:13:33;;;;;;;10.88;4.53;;;20.70;99.90;;;;;;5022614;28;20033;-69
2022/08/14 21:16:03;;;;;;;8.82;4.60;;;20.60;99.90;;;;;;5026988;28;20491;-69
2022/08/14 21:18:34;;;;;;;8.60;4.20;;;20.60;99.90;;;;;;5030115;28;20083;-68
2022/08/14 21:21:08;;;;;;;6.80;4.07;;;20.60;99.90;;;;;;5014396;28;20731;-68
2022/08/14 21:23:37;;;;;;;8.15;3.92;;;20.70;99.90;;;;;;5033156;28;20090;-70
2022/08/14 21:26:04;;;;;;;7.45;3.75;;;20.70;99.90;;;;;;5031026;28;20531;-68
2022/08/14 21:28:30;;;;;;;6.35;3.85;;;20.80;99.90;;;;;;5034340;28;20124;-69
2022/08/14 21:30:57;;;;;;;10.70;4.57;;;20.80;99.90;;;;;;5031424;28;20022;-68
2022/08/14 21:33:23;;;;;;;8.40;3.72;;;20.90;99.90;;;;;;5030018;28;20033;-69
2022/08/14 21:35:51;;;;;;;8.20;3.70;;;20.90;99.90;;;;;;5014557;28;20322;-68
2022/08/14 21:38:17;;;;;;;7.63;4.20;;;20.90;99.90;;;;;;5034011;28;20048;-69
2022/08/14 21:40:45;;;;;;;6.03;4.07;;;20.90;99.90;;;;;;5032991;28;20037;-69
2022/08/14 21:43:19;;;;;;;6.10;3.75;;;20.90;99.90;;;;;;5012379;28;20120;-70
2022/08/14 21:45:54;;;;;;;5.45;3.60;;;20.80;99.90;;;;;;5026384;28;20041;-69
2022/08/14 21:48:26;;;;;;;5.43;3.67;;;20.70;99.90;;;;;;5005692;28;20132;-68
2022/08/14 21:50:53;;;;;;;7.25;3.83;;;20.70;99.90;;;;;;5030668;28;20029;-68
2022/08/14 21:53:22;;;;;;;6.07;3.67;;;20.70;99.90;;;;;;5014104;28;20038;-69
2022/08/14 21:55:48;;;;;;;6.40;4.22;;;20.60;99.90;;;;;;5036548;28;20025;-70
2022/08/14 21:58:16;;;;;;;9.32;4.43;;;20.50;99.90;;;;;;5037951;28;20043;-69
2022/08/14 22:00:43;;;;;;;7.07;4.60;;;20.30;99.90;;;;;;5013837;28;20167;-68
2022/08/14 22:03:17;;;;;;;6.80;4.65;;;20.20;99.90;;;;;;5036868;28;20063;-68
2022/08/14 22:05:49;;;;;;;7.25;4.28;;;20.10;99.90;;;;;;5035030;28;20033;-69
2022/08/14 22:08:16;;;;;;;7.85;4.55;;;20.00;99.90;;;;;;5034606;28;20037;-68
2022/08/14 22:10:45;;;;;;;7.43;4.22;;;20.00;99.90;;;;;;5033653;28;20036;-71
2022/08/14 22:13:12;;;;;;;9.15;4.72;;;20.00;99.90;;;;;;5020560;28;20033;-70
2022/08/14 22:15:39;;;;;;;11.48;4.30;;;20.00;99.90;;;;;;5030786;28;20781;-68
2022/08/14 22:18:06;;;;;;;8.32;4.47;;;19.90;99.90;;;;;;5013865;28;20032;-70
2022/08/14 22:20:33;;;;;;;9.70;5.05;;;20.00;99.90;;;;;;5015836;28;20040;-69
2022/08/14 22:23:03;;;;;;;10.27;4.63;;;20.00;99.90;;;;;;5019275;28;20029;-68
2022/08/14 22:25:30;;;;;;;;;;;19.90;99.90;;;;;;5042083;28;20038;-68
2022/08/14 22:27:56;;;;;;;9.63;4.55;;;19.80;99.90;;;;;;5041986;28;19917;-70
2022/08/14 22:30:22;;;;;;;8.98;4.50;;;19.80;99.90;;;;;;5020012;28;20057;-69
2022/08/14 22:32:48;;;;;;;9.68;4.30;;;19.90;99.90;;;;;;5017591;28;20057;-67
2022/08/14 22:35:16;;;;;;;9.15;5.35;;;19.80;99.90;;;;;;5038807;28;20067;-70
2022/08/14 22:37:43;;;;;;;7.43;4.83;;;19.80;99.90;;;;;;5027621;28;20025;-69
2022/08/14 22:40:11;;;;;;;8.80;5.50;;;19.70;99.90;;;;;;5043868;28;20472;-68
2022/08/14 22:42:38;;;;;;;6.43;5.82;;;19.60;99.90;;;;;;5023785;28;20057;-67
2022/08/14 22:45:06;;;;;;;7.32;6.55;;;19.60;99.90;;;;;;5032973;28;20033;-68
2022/08/14 22:47:33;;;;;;;8.15;7.30;;;19.50;99.90;;;;;;5031229;28;20127;-67
2022/08/14 22:49:58;;;;;;;6.68;5.97;;;19.50;99.90;;;;;;5011871;28;20057;-68
2022/08/14 22:52:24;;;;;;;7.30;6.03;;;19.40;99.90;;;;;;5029089;28;20045;-68
2022/08/14 22:54:51;;;;;;;7.20;6.47;;;19.40;99.90;;;;;;5023742;28;20033;-68
2022/08/14 22:57:17;;;;;;;8.25;6.25;;;19.40;99.90;;;;;;5028387;28;20120;-67
2022/08/14 22:59:43;;;;;;;9.82;6.85;;;19.30;99.90;;;;;;5039463;28;20029;-68
2022/08/14 23:02:24;;;;;;;8.32;6.97;;;19.30;99.90;;;;;;5026490;28;20476;-68
2022/08/14 23:04:53;;;;;;;7.47;6.40;;;19.30;99.90;;;;;;5025518;28;20037;-69
2022/08/14 23:07:21;;;;;;;11.38;8.98;;;19.30;99.90;;;;;;5010284;28;20042;-69
2022/08/14 23:09:46;;;;;;;12.13;10.05;;;19.40;99.90;;;;;;5023284;28;20148;-68
2022/08/14 23:12:13;;;;;;;13.57;10.88;;;19.40;99.90;;;;;;5027662;28;20673;-68
2022/08/14 23:14:39;;;;;;;13.93;8.48;;;19.30;99.90;;;;;;5026426;28;20087;-69
2022/08/14 23:17:06;;;;;;;9.13;6.65;;;19.30;99.90;;;;;;5023673;28;20480;-69
2022/08/14 23:19:33;;;;;;;10.45;6.70;;;19.40;99.90;;;;;;5026923;28;20192;-69
2022/08/14 23:21:59;;;;;;;10.70;8.35;;;19.30;99.90;;;;;;5005955;28;20060;-68
2022/08/14 23:24:26;;;;;;;12.10;8.65;;;19.20;99.90;;;;;;5025284;28;20072;-69
2022/08/14 23:26:53;;;;;;;17.90;11.23;;;19.00;99.90;;;;;;5025590;28;20037;-69
2022/08/14 23:29:19;;;;;;;14.68;13.00;;;19.00;99.90;;;;;;5025223;28;20080;-68
2022/08/14 23:31:47;;;;;;;18.80;16.80;;;18.90;99.90;;;;;;5005085;28;20037;-68
2022/08/14 23:34:16;;;;;;;24.00;18.27;;;18.90;99.90;;;;;;5027143;28;20124;-69
2022/08/14 23:36:45;;;;;;;24.88;20.45;;;18.80;99.90;;;;;;5021914;28;20034;-68
2022/08/14 23:39:12;;;;;;;22.77;19.87;;;18.80;99.90;;;;;;5003036;28;20464;-69
2022/08/14 23:41:40;;;;;;;22.10;19.55;;;18.80;99.90;;;;;;5010226;28;20353;-68
2022/08/14 23:44:06;;;;;;;18.52;14.93;;;18.80;99.90;;;;;;5027814;28;20029;-68
2022/08/14 23:46:32;;;;;;;11.30;10.05;;;18.90;99.90;;;;;;5025862;28;20385;-68
2022/08/14 23:48:58;;;;;;;20.58;16.13;;;19.00;99.90;;;;;;5002586;28;20446;-69
2022/08/14 23:51:24;;;;;;;23.83;20.40;;;19.10;99.90;;;;;;5028076;28;20395;-68
2022/08/14 23:53:50;;;;;;;21.80;17.42;;;19.30;99.90;;;;;;5003164;28;20025;-69
2022/08/14 23:56:20;;;;;;;25.75;21.80;;;19.40;99.90;;;;;;5026540;28;20048;-68
2022/08/14 23:58:45;;;;;;;25.17;20.70;;;19.50;99.90;;;;;;5011966;28;20057;-68
